sensor_id;sensor_type;location;lat;lon;timestamp;P1;durP1;ratioP1;P2;durP2;ratioP2
21645;SDS011;10984;45.712;4.800;2023-10-13T00:01:00;10.30;;;5.47;;
21645;SDS011;10984;45.712;4.800;2023-10-13T00:03:29;9.55;;;5.70;;
21645;SDS011;10984;45.712;4.800;2023-10-13T00:05:57;10.75;;;6.00;;
21645;SDS011;10984;45.712;4.800;2023-10-13T00:08:27;12.75;;;6.65;;
21645;SDS011;10984;45.712;4.800;2023-10-13T00:10:54;12.65;;;5.97;;
21645;SDS011;10984;45.712;4.800;2023-10-13T00:13:25;8.75;;;5.80;;
21645;SDS011;10984;45.712;4.800;2023-10-13T00:15:52;10.20;;;5.68;;
21645;SDS011;10984;45.712;4.800;2023-10-13T00:18:36;9.40;;;5.80;;
21645;SDS011;10984;45.712;4.800;2023-10-13T00:21:20;9.77;;;6.03;;
21645;SDS011;10984;45.712;4.800;2023-10-13T00:24:04;9.82;;;5.78;;
21645;SDS011;10984;45.712;4.800;2023-10-13T00:26:49;12.15;;;5.75;;
21645;SDS011;10984;45.712;4.800;2023-10-13T00:29:14;10.30;;;5.53;;
21645;SDS011;10984;45.712;4.800;2023-10-13T00:31:58;10.30;;;6.18;;
21645;SDS011;10984;45.712;4.800;2023-10-13T00:34:25;10.18;;;6.30;;
21645;SDS011;10984;45.712;4.800;2023-10-13T00:36:54;9.15;;;5.75;;
21645;SDS011;10984;45.712;4.800;2023-10-13T00:39:40;11.35;;;5.93;;
21645;SDS011;10984;45.712;4.800;2023-10-13T00:42:09;8.73;;;5.57;;
21645;SDS011;10984;45.712;4.800;2023-10-13T00:44:43;8.35;;;5.43;;
21645;SDS011;10984;45.712;4.800;2023-10-13T00:47:13;14.18;;;6.40;;
21645;SDS011;10984;45.712;4.800;2023-10-13T00:52:28;9.07;;;6.38;;
21645;SDS011;10984;45.712;4.800;2023-10-13T00:54:55;9.70;;;5.60;;
21645;SDS011;10984;45.712;4.800;2023-10-13T00:57:25;9.15;;;5.78;;
21645;SDS011;10984;45.712;4.800;2023-10-13T01:00:09;10.18;;;6.03;;
21645;SDS011;10984;45.712;4.800;2023-10-13T01:02:54;9.68;;;6.10;;
21645;SDS011;10984;45.712;4.800;2023-10-13T01:05:38;10.32;;;5.85;;
21645;SDS011;10984;45.712;4.800;2023-10-13T01:08:05;9.75;;;4.90;;
21645;SDS011;10984;45.712;4.800;2023-10-13T01:10:35;10.30;;;5.35;;
21645;SDS011;10984;45.712;4.800;2023-10-13T01:13:02;10.52;;;6.53;;
21645;SDS011;10984;45.712;4.800;2023-10-13T01:15:28;8.77;;;5.47;;
21645;SDS011;10984;45.712;4.800;2023-10-13T01:18:12;11.10;;;6.53;;
21645;SDS011;10984;45.712;4.800;2023-10-13T01:20:56;14.27;;;6.28;;
21645;SDS011;10984;45.712;4.800;2023-10-13T01:23:27;9.48;;;5.40;;
21645;SDS011;10984;45.712;4.800;2023-10-13T01:25:53;10.15;;;6.45;;
21645;SDS011;10984;45.712;4.800;2023-10-13T01:28:22;11.10;;;6.07;;
21645;SDS011;10984;45.712;4.800;2023-10-13T01:30:49;11.15;;;6.38;;
21645;SDS011;10984;45.712;4.800;2023-10-13T01:33:33;12.65;;;6.43;;
21645;SDS011;10984;45.712;4.800;2023-10-13T01:35:59;7.97;;;5.50;;
21645;SDS011;10984;45.712;4.800;2023-10-13T01:38:31;10.10;;;5.53;;
21645;SDS011;10984;45.712;4.800;2023-10-13T01:40:58;9.45;;;6.43;;
21645;SDS011;10984;45.712;4.800;2023-10-13T01:43:24;12.15;;;6.07;;
21645;SDS011;10984;45.712;4.800;2023-10-13T01:45:50;11.00;;;5.80;;
21645;SDS011;10984;45.712;4.800;2023-10-13T01:48:15;10.98;;;5.55;;
21645;SDS011;10984;45.712;4.800;2023-10-13T01:50:44;12.40;;;6.38;;
21645;SDS011;10984;45.712;4.800;2023-10-13T01:53:29;11.65;;;6.10;;
21645;SDS011;10984;45.712;4.800;2023-10-13T01:55:54;9.23;;;5.63;;
21645;SDS011;10984;45.712;4.800;2023-10-13T01:58:39;10.65;;;5.80;;
21645;SDS011;10984;45.712;4.800;2023-10-13T02:01:24;9.45;;;5.72;;
21645;SDS011;10984;45.712;4.800;2023-10-13T02:03:58;11.15;;;5.85;;
21645;SDS011;10984;45.712;4.800;2023-10-13T02:06:42;10.75;;;5.95;;
21645;SDS011;10984;45.712;4.800;2023-10-13T02:09:08;9.98;;;5.47;;
21645;SDS011;10984;45.712;4.800;2023-10-13T02:11:52;9.45;;;5.68;;
21645;SDS011;10984;45.712;4.800;2023-10-13T02:14:19;10.27;;;5.78;;
21645;SDS011;10984;45.712;4.800;2023-10-13T02:16:47;9.70;;;6.00;;
21645;SDS011;10984;45.712;4.800;2023-10-13T02:19:15;10.77;;;6.95;;
21645;SDS011;10984;45.712;4.800;2023-10-13T02:21:44;12.23;;;7.22;;
21645;SDS011;10984;45.712;4.800;2023-10-13T02:24:10;11.98;;;6.63;;
21645;SDS011;10984;45.712;4.800;2023-10-13T02:26:56;10.73;;;6.40;;
21645;SDS011;10984;45.712;4.800;2023-10-13T02:29:27;11.63;;;6.13;;
21645;SDS011;10984;45.712;4.800;2023-10-13T02:31:53;13.43;;;5.95;;
21645;SDS011;10984;45.712;4.800;2023-10-13T02:34:20;10.52;;;5.85;;
21645;SDS011;10984;45.712;4.800;2023-10-13T02:36:48;9.63;;;5.60;;
21645;SDS011;10984;45.712;4.800;2023-10-13T02:39:17;10.73;;;5.70;;
21645;SDS011;10984;45.712;4.800;2023-10-13T02:42:02;9.48;;;6.00;;
21645;SDS011;10984;45.712;4.800;2023-10-13T02:44:46;8.73;;;5.80;;
21645;SDS011;10984;45.712;4.800;2023-10-13T02:47:12;9.73;;;6.22;;
21645;SDS011;10984;45.712;4.800;2023-10-13T02:49:56;10.65;;;6.38;;
21645;SDS011;10984;45.712;4.800;2023-10-13T02:52:25;11.77;;;6.90;;
21645;SDS011;10984;45.712;4.800;2023-10-13T02:54:51;10.32;;;6.43;;
21645;SDS011;10984;45.712;4.800;2023-10-13T02:57:17;9.43;;;6.43;;
21645;SDS011;10984;45.712;4.800;2023-10-13T02:59:43;15.15;;;7.22;;
21645;SDS011;10984;45.712;4.800;2023-10-13T03:02:28;12.98;;;6.57;;
21645;SDS011;10984;45.712;4.800;2023-10-13T03:04:56;9.32;;;5.88;;
21645;SDS011;10984;45.712;4.800;2023-10-13T03:07:41;9.82;;;6.15;;
21645;SDS011;10984;45.712;4.800;2023-10-13T03:10:25;12.23;;;6.78;;
21645;SDS011;10984;45.712;4.800;2023-10-13T03:12:54;9.32;;;5.65;;
21645;SDS011;10984;45.712;4.800;2023-10-13T03:15:20;11.30;;;6.30;;
21645;SDS011;10984;45.712;4.800;2023-10-13T03:17:53;11.75;;;6.68;;
21645;SDS011;10984;45.712;4.800;2023-10-13T03:20:20;12.65;;;7.07;;
21645;SDS011;10984;45.712;4.800;2023-10-13T03:23:06;9.75;;;6.10;;
21645;SDS011;10984;45.712;4.800;2023-10-13T03:25:34;8.38;;;5.90;;
21645;SDS011;10984;45.712;4.800;2023-10-13T03:28:18;13.20;;;6.38;;
21645;SDS011;10984;45.712;4.800;2023-10-13T03:30:50;12.07;;;6.25;;
21645;SDS011;10984;45.712;4.800;2023-10-13T03:33:18;11.60;;;6.75;;
21645;SDS011;10984;45.712;4.800;2023-10-13T03:36:02;12.65;;;7.18;;
21645;SDS011;10984;45.712;4.800;2023-10-13T03:38:31;14.15;;;8.82;;
21645;SDS011;10984;45.712;4.800;2023-10-13T03:41:01;12.13;;;8.30;;
21645;SDS011;10984;45.712;4.800;2023-10-13T03:43:45;14.43;;;8.32;;
21645;SDS011;10984;45.712;4.800;2023-10-13T03:46:16;15.93;;;8.13;;
21645;SDS011;10984;45.712;4.800;2023-10-13T03:48:46;11.77;;;7.38;;
21645;SDS011;10984;45.712;4.800;2023-10-13T03:51:38;10.02;;;6.40;;
21645;SDS011;10984;45.712;4.800;2023-10-13T03:54:04;11.93;;;6.68;;
21645;SDS011;10984;45.712;4.800;2023-10-13T03:56:32;10.68;;;6.38;;
21645;SDS011;10984;45.712;4.800;2023-10-13T03:59:16;9.27;;;6.28;;
21645;SDS011;10984;45.712;4.800;2023-10-13T04:01:42;11.23;;;6.18;;
21645;SDS011;10984;45.712;4.800;2023-10-13T04:04:08;10.93;;;6.95;;
21645;SDS011;10984;45.712;4.800;2023-10-13T04:06:36;10.65;;;7.03;;
21645;SDS011;10984;45.712;4.800;2023-10-13T04:09:21;10.15;;;6.53;;
21645;SDS011;10984;45.712;4.800;2023-10-13T04:12:06;13.93;;;7.50;;
21645;SDS011;10984;45.712;4.800;2023-10-13T04:14:51;10.35;;;7.13;;
21645;SDS011;10984;45.712;4.800;2023-10-13T04:17:36;15.98;;;6.82;;
21645;SDS011;10984;45.712;4.800;2023-10-13T04:20:20;11.68;;;7.13;;
21645;SDS011;10984;45.712;4.800;2023-10-13T04:23:04;10.88;;;6.72;;
21645;SDS011;10984;45.712;4.800;2023-10-13T04:25:48;11.38;;;6.72;;
21645;SDS011;10984;45.712;4.800;2023-10-13T04:28:14;12.35;;;7.32;;
21645;SDS011;10984;45.712;4.800;2023-10-13T04:30:59;12.30;;;7.20;;
21645;SDS011;10984;45.712;4.800;2023-10-13T04:33:32;13.05;;;8.15;;
21645;SDS011;10984;45.712;4.800;2023-10-13T04:36:16;11.30;;;7.53;;
21645;SDS011;10984;45.712;4.800;2023-10-13T04:39:01;12.80;;;7.63;;
21645;SDS011;10984;45.712;4.800;2023-10-13T04:41:46;11.63;;;7.22;;
21645;SDS011;10984;45.712;4.800;2023-10-13T04:44:30;12.40;;;7.07;;
21645;SDS011;10984;45.712;4.800;2023-10-13T04:47:14;13.10;;;7.70;;
21645;SDS011;10984;45.712;4.800;2023-10-13T04:49:58;10.52;;;6.85;;
21645;SDS011;10984;45.712;4.800;2023-10-13T04:52:25;13.38;;;7.03;;
21645;SDS011;10984;45.712;4.800;2023-10-13T04:55:09;11.27;;;7.18;;
21645;SDS011;10984;45.712;4.800;2023-10-13T04:57:53;12.02;;;7.65;;
21645;SDS011;10984;45.712;4.800;2023-10-13T05:00:35;12.57;;;7.82;;
21645;SDS011;10984;45.712;4.800;2023-10-13T05:03:19;15.18;;;8.55;;
21645;SDS011;10984;45.712;4.800;2023-10-13T05:06:05;14.10;;;8.20;;
21645;SDS011;10984;45.712;4.800;2023-10-13T05:08:51;13.13;;;8.50;;
21645;SDS011;10984;45.712;4.800;2023-10-13T05:11:35;13.80;;;8.55;;
21645;SDS011;10984;45.712;4.800;2023-10-13T05:14:20;13.65;;;8.50;;
21645;SDS011;10984;45.712;4.800;2023-10-13T05:17:04;12.95;;;7.25;;
21645;SDS011;10984;45.712;4.800;2023-10-13T05:19:48;15.18;;;9.45;;
21645;SDS011;10984;45.712;4.800;2023-10-13T05:22:32;14.77;;;9.50;;
21645;SDS011;10984;45.712;4.800;2023-10-13T05:25:17;13.55;;;8.98;;
21645;SDS011;10984;45.712;4.800;2023-10-13T05:28:01;17.10;;;8.70;;
21645;SDS011;10984;45.712;4.800;2023-10-13T05:30:45;16.10;;;9.48;;
21645;SDS011;10984;45.712;4.800;2023-10-13T05:33:29;12.57;;;7.85;;
21645;SDS011;10984;45.712;4.800;2023-10-13T05:36:13;17.70;;;9.48;;
21645;SDS011;10984;45.712;4.800;2023-10-13T05:38:57;14.18;;;8.88;;
21645;SDS011;10984;45.712;4.800;2023-10-13T05:41:41;14.07;;;8.73;;
21645;SDS011;10984;45.712;4.800;2023-10-13T05:44:25;15.30;;;8.88;;
21645;SDS011;10984;45.712;4.800;2023-10-13T05:47:09;14.82;;;9.23;;
21645;SDS011;10984;45.712;4.800;2023-10-13T05:49:53;15.13;;;9.07;;
21645;SDS011;10984;45.712;4.800;2023-10-13T05:52:30;14.73;;;9.48;;
21645;SDS011;10984;45.712;4.800;2023-10-13T05:55:14;16.70;;;10.07;;
21645;SDS011;10984;45.712;4.800;2023-10-13T05:57:58;14.43;;;8.25;;
21645;SDS011;10984;45.712;4.800;2023-10-13T06:00:42;16.42;;;9.15;;
21645;SDS011;10984;45.712;4.800;2023-10-13T06:03:26;15.43;;;9.57;;
21645;SDS011;10984;45.712;4.800;2023-10-13T06:06:10;16.48;;;9.20;;
21645;SDS011;10984;45.712;4.800;2023-10-13T06:08:54;17.25;;;9.75;;
21645;SDS011;10984;45.712;4.800;2023-10-13T06:11:38;18.40;;;10.15;;
21645;SDS011;10984;45.712;4.800;2023-10-13T06:14:22;18.30;;;10.45;;
21645;SDS011;10984;45.712;4.800;2023-10-13T06:17:06;19.67;;;11.10;;
21645;SDS011;10984;45.712;4.800;2023-10-13T06:19:50;16.13;;;10.23;;
21645;SDS011;10984;45.712;4.800;2023-10-13T06:22:34;18.00;;;10.73;;
21645;SDS011;10984;45.712;4.800;2023-10-13T06:25:18;20.10;;;10.65;;
21645;SDS011;10984;45.712;4.800;2023-10-13T06:28:02;21.27;;;10.75;;
21645;SDS011;10984;45.712;4.800;2023-10-13T06:33:32;14.60;;;9.63;;
21645;SDS011;10984;45.712;4.800;2023-10-13T06:36:16;14.82;;;9.77;;
21645;SDS011;10984;45.712;4.800;2023-10-13T06:38:43;18.27;;;10.40;;
21645;SDS011;10984;45.712;4.800;2023-10-13T06:41:09;17.67;;;10.07;;
21645;SDS011;10984;45.712;4.800;2023-10-13T06:43:44;15.82;;;10.02;;
21645;SDS011;10984;45.712;4.800;2023-10-13T06:46:10;16.75;;;10.18;;
21645;SDS011;10984;45.712;4.800;2023-10-13T06:48:54;17.63;;;10.00;;
21645;SDS011;10984;45.712;4.800;2023-10-13T06:51:20;23.25;;;10.15;;
21645;SDS011;10984;45.712;4.800;2023-10-13T06:54:05;16.50;;;9.55;;
21645;SDS011;10984;45.712;4.800;2023-10-13T06:56:36;17.30;;;10.88;;
21645;SDS011;10984;45.712;4.800;2023-10-13T06:59:04;16.65;;;9.52;;
21645;SDS011;10984;45.712;4.800;2023-10-13T07:01:31;16.10;;;10.68;;
21645;SDS011;10984;45.712;4.800;2023-10-13T07:04:16;17.30;;;9.48;;
21645;SDS011;10984;45.712;4.800;2023-10-13T07:06:42;16.67;;;10.05;;
21645;SDS011;10984;45.712;4.800;2023-10-13T07:09:12;15.48;;;9.45;;
21645;SDS011;10984;45.712;4.800;2023-10-13T07:14:48;14.18;;;8.43;;
21645;SDS011;10984;45.712;4.800;2023-10-13T07:17:33;13.35;;;8.55;;
21645;SDS011;10984;45.712;4.800;2023-10-13T07:20:04;16.38;;;9.45;;
21645;SDS011;10984;45.712;4.800;2023-10-13T07:22:49;13.70;;;9.10;;
21645;SDS011;10984;45.712;4.800;2023-10-13T07:25:34;17.25;;;8.82;;
21645;SDS011;10984;45.712;4.800;2023-10-13T07:28:02;13.82;;;8.70;;
21645;SDS011;10984;45.712;4.800;2023-10-13T07:33:50;17.70;;;9.40;;
21645;SDS011;10984;45.712;4.800;2023-10-13T07:36:15;15.25;;;8.93;;
21645;SDS011;10984;45.712;4.800;2023-10-13T07:38:49;15.65;;;9.50;;
21645;SDS011;10984;45.712;4.800;2023-10-13T07:41:34;15.38;;;8.60;;
21645;SDS011;10984;45.712;4.800;2023-10-13T07:44:01;14.07;;;8.43;;
21645;SDS011;10984;45.712;4.800;2023-10-13T07:46:29;11.48;;;7.70;;
21645;SDS011;10984;45.712;4.800;2023-10-13T07:48:58;12.35;;;7.85;;
21645;SDS011;10984;45.712;4.800;2023-10-13T07:51:34;13.52;;;8.25;;
21645;SDS011;10984;45.712;4.800;2023-10-13T07:54:09;12.38;;;7.47;;
21645;SDS011;10984;45.712;4.800;2023-10-13T07:56:38;13.20;;;7.93;;
21645;SDS011;10984;45.712;4.800;2023-10-13T07:59:04;11.48;;;7.40;;
21645;SDS011;10984;45.712;4.800;2023-10-13T08:01:33;11.73;;;7.25;;
21645;SDS011;10984;45.712;4.800;2023-10-13T08:03:59;12.98;;;7.15;;
21645;SDS011;10984;45.712;4.800;2023-10-13T08:06:43;11.05;;;7.20;;
21645;SDS011;10984;45.712;4.800;2023-10-13T08:09:10;12.13;;;7.95;;
21645;SDS011;10984;45.712;4.800;2023-10-13T08:11:55;13.32;;;8.02;;
21645;SDS011;10984;45.712;4.800;2023-10-13T08:14:21;13.50;;;8.27;;
21645;SDS011;10984;45.712;4.800;2023-10-13T08:16:47;10.20;;;6.88;;
21645;SDS011;10984;45.712;4.800;2023-10-13T08:22:16;10.45;;;7.05;;
21645;SDS011;10984;45.712;4.800;2023-10-13T08:25:00;10.52;;;6.93;;
21645;SDS011;10984;45.712;4.800;2023-10-13T08:27:44;12.40;;;6.78;;
21645;SDS011;10984;45.712;4.800;2023-10-13T08:30:28;10.15;;;6.47;;
21645;SDS011;10984;45.712;4.800;2023-10-13T08:32:54;12.52;;;7.32;;
21645;SDS011;10984;45.712;4.800;2023-10-13T08:35:22;9.82;;;6.20;;
21645;SDS011;10984;45.712;4.800;2023-10-13T08:37:48;11.05;;;7.18;;
21645;SDS011;10984;45.712;4.800;2023-10-13T08:40:32;10.95;;;6.60;;
21645;SDS011;10984;45.712;4.800;2023-10-13T08:43:16;14.73;;;6.00;;
21645;SDS011;10984;45.712;4.800;2023-10-13T08:45:43;10.55;;;6.40;;
21645;SDS011;10984;45.712;4.800;2023-10-13T08:50:56;9.13;;;6.28;;
21645;SDS011;10984;45.712;4.800;2023-10-13T08:53:28;9.60;;;5.68;;
21645;SDS011;10984;45.712;4.800;2023-10-13T08:56:13;11.55;;;6.32;;
21645;SDS011;10984;45.712;4.800;2023-10-13T08:58:39;9.40;;;5.90;;
21645;SDS011;10984;45.712;4.800;2023-10-13T09:04:35;8.15;;;5.47;;
21645;SDS011;10984;45.712;4.800;2023-10-13T09:07:03;8.35;;;5.22;;
21645;SDS011;10984;45.712;4.800;2023-10-13T09:09:49;9.52;;;5.40;;
21645;SDS011;10984;45.712;4.800;2023-10-13T09:12:16;8.65;;;5.75;;
21645;SDS011;10984;45.712;4.800;2023-10-13T09:17:54;8.68;;;5.10;;
21645;SDS011;10984;45.712;4.800;2023-10-13T09:20:37;13.15;;;5.38;;
21645;SDS011;10984;45.712;4.800;2023-10-13T09:23:07;7.70;;;5.18;;
21645;SDS011;10984;45.712;4.800;2023-10-13T09:25:53;8.90;;;5.18;;
21645;SDS011;10984;45.712;4.800;2023-10-13T09:28:34;8.45;;;5.13;;
21645;SDS011;10984;45.712;4.800;2023-10-13T09:31:02;9.77;;;4.82;;
21645;SDS011;10984;45.712;4.800;2023-10-13T09:33:32;10.90;;;4.57;;
21645;SDS011;10984;45.712;4.800;2023-10-13T09:36:01;9.32;;;5.15;;
21645;SDS011;10984;45.712;4.800;2023-10-13T09:38:30;9.82;;;4.35;;
21645;SDS011;10984;45.712;4.800;2023-10-13T09:40:58;13.10;;;4.82;;
21645;SDS011;10984;45.712;4.800;2023-10-13T09:43:35;12.05;;;5.18;;
21645;SDS011;10984;45.712;4.800;2023-10-13T09:46:02;9.90;;;4.68;;
21645;SDS011;10984;45.712;4.800;2023-10-13T09:48:33;8.55;;;4.47;;
21645;SDS011;10984;45.712;4.800;2023-10-13T09:53:56;7.68;;;4.30;;
21645;SDS011;10984;45.712;4.800;2023-10-13T09:59:36;7.05;;;3.83;;
21645;SDS011;10984;45.712;4.800;2023-10-13T10:02:14;25.25;;;4.93;;
21645;SDS011;10984;45.712;4.800;2023-10-13T10:19:47;7.85;;;3.60;;
21645;SDS011;10984;45.712;4.800;2023-10-13T10:22:24;8.45;;;4.10;;
21645;SDS011;10984;45.712;4.800;2023-10-13T10:30:41;9.77;;;4.43;;
21645;SDS011;10984;45.712;4.800;2023-10-13T10:33:09;7.50;;;4.03;;
21645;SDS011;10984;45.712;4.800;2023-10-13T10:38:57;5.97;;;4.13;;
21645;SDS011;10984;45.712;4.800;2023-10-13T10:41:41;11.27;;;4.28;;
21645;SDS011;10984;45.712;4.800;2023-10-13T10:44:25;9.70;;;4.53;;
21645;SDS011;10984;45.712;4.800;2023-10-13T10:47:09;18.13;;;4.38;;
21645;SDS011;10984;45.712;4.800;2023-10-13T10:52:20;10.77;;;3.83;;
21645;SDS011;10984;45.712;4.800;2023-10-13T10:54:47;6.18;;;4.15;;
21645;SDS011;10984;45.712;4.800;2023-10-13T10:57:24;8.95;;;4.38;;
21645;SDS011;10984;45.712;4.800;2023-10-13T10:59:54;9.40;;;4.70;;
21645;SDS011;10984;45.712;4.800;2023-10-13T11:02:36;11.75;;;4.70;;
21645;SDS011;10984;45.712;4.800;2023-10-13T11:05:02;7.38;;;4.82;;
21645;SDS011;10984;45.712;4.800;2023-10-13T11:07:31;6.70;;;4.32;;
21645;SDS011;10984;45.712;4.800;2023-10-13T11:10:06;6.60;;;4.25;;
21645;SDS011;10984;45.712;4.800;2023-10-13T11:12:36;7.25;;;4.57;;
21645;SDS011;10984;45.712;4.800;2023-10-13T11:15:05;9.68;;;4.50;;
21645;SDS011;10984;45.712;4.800;2023-10-13T11:17:39;8.52;;;4.40;;
21645;SDS011;10984;45.712;4.800;2023-10-13T11:20:23;9.98;;;4.78;;
21645;SDS011;10984;45.712;4.800;2023-10-13T11:28:37;10.48;;;4.20;;
21645;SDS011;10984;45.712;4.800;2023-10-13T11:31:03;8.27;;;4.72;;
21645;SDS011;10984;45.712;4.800;2023-10-13T11:33:47;10.48;;;4.70;;
21645;SDS011;10984;45.712;4.800;2023-10-13T11:36:15;7.13;;;4.40;;
21645;SDS011;10984;45.712;4.800;2023-10-13T11:38:59;10.00;;;5.10;;
21645;SDS011;10984;45.712;4.800;2023-10-13T11:41:25;7.35;;;4.72;;
21645;SDS011;10984;45.712;4.800;2023-10-13T11:44:09;7.82;;;4.45;;
21645;SDS011;10984;45.712;4.800;2023-10-13T11:46:53;8.52;;;4.35;;
21645;SDS011;10984;45.712;4.800;2023-10-13T11:49:37;9.02;;;4.93;;
21645;SDS011;10984;45.712;4.800;2023-10-13T11:52:03;10.90;;;4.90;;
21645;SDS011;10984;45.712;4.800;2023-10-13T11:54:47;8.18;;;4.18;;
21645;SDS011;10984;45.712;4.800;2023-10-13T11:57:12;7.75;;;4.60;;
21645;SDS011;10984;45.712;4.800;2023-10-13T11:59:41;11.25;;;4.47;;
21645;SDS011;10984;45.712;4.800;2023-10-13T12:02:11;9.30;;;4.28;;
21645;SDS011;10984;45.712;4.800;2023-10-13T12:04:55;17.35;;;5.03;;
21645;SDS011;10984;45.712;4.800;2023-10-13T12:07:22;6.22;;;3.90;;
21645;SDS011;10984;45.712;4.800;2023-10-13T12:10:07;10.07;;;5.13;;
21645;SDS011;10984;45.712;4.800;2023-10-13T12:12:40;12.48;;;4.63;;
21645;SDS011;10984;45.712;4.800;2023-10-13T12:15:08;7.10;;;3.78;;
21645;SDS011;10984;45.712;4.800;2023-10-13T12:17:34;13.05;;;4.50;;
21645;SDS011;10984;45.712;4.800;2023-10-13T12:20:01;6.95;;;4.28;;
21645;SDS011;10984;45.712;4.800;2023-10-13T12:22:30;7.80;;;4.82;;
21645;SDS011;10984;45.712;4.800;2023-10-13T12:25:15;9.18;;;4.60;;
21645;SDS011;10984;45.712;4.800;2023-10-13T12:27:59;8.82;;;4.55;;
21645;SDS011;10984;45.712;4.800;2023-10-13T12:33:31;6.75;;;3.92;;
21645;SDS011;10984;45.712;4.800;2023-10-13T12:36:16;7.30;;;4.68;;
21645;SDS011;10984;45.712;4.800;2023-10-13T12:39:00;8.68;;;4.32;;
21645;SDS011;10984;45.712;4.800;2023-10-13T12:41:44;7.28;;;4.88;;
21645;SDS011;10984;45.712;4.800;2023-10-13T12:44:28;6.47;;;4.35;;
21645;SDS011;10984;45.712;4.800;2023-10-13T12:47:12;10.13;;;4.95;;
21645;SDS011;10984;45.712;4.800;2023-10-13T12:49:56;10.30;;;4.35;;
21645;SDS011;10984;45.712;4.800;2023-10-13T12:52:40;10.65;;;4.65;;
21645;SDS011;10984;45.712;4.800;2023-10-13T12:55:10;6.55;;;4.18;;
21645;SDS011;10984;45.712;4.800;2023-10-13T12:57:38;7.80;;;4.43;;
21645;SDS011;10984;45.712;4.800;2023-10-13T13:00:08;14.68;;;4.03;;
21645;SDS011;10984;45.712;4.800;2023-10-13T13:02:41;7.63;;;3.70;;
21645;SDS011;10984;45.712;4.800;2023-10-13T13:05:07;7.15;;;4.82;;
21645;SDS011;10984;45.712;4.800;2023-10-13T13:07:36;9.23;;;4.10;;
21645;SDS011;10984;45.712;4.800;2023-10-13T13:10:21;15.85;;;5.72;;
21645;SDS011;10984;45.712;4.800;2023-10-13T13:13:05;7.40;;;4.85;;
21645;SDS011;10984;45.712;4.800;2023-10-13T13:15:32;8.38;;;5.10;;
21645;SDS011;10984;45.712;4.800;2023-10-13T13:17:58;7.28;;;4.20;;
21645;SDS011;10984;45.712;4.800;2023-10-13T13:20:34;7.82;;;4.45;;
21645;SDS011;10984;45.712;4.800;2023-10-13T13:23:04;8.30;;;4.43;;
21645;SDS011;10984;45.712;4.800;2023-10-13T13:25:30;10.82;;;5.03;;
21645;SDS011;10984;45.712;4.800;2023-10-13T13:27:56;8.85;;;5.25;;
21645;SDS011;10984;45.712;4.800;2023-10-13T13:30:26;7.03;;;4.32;;
21645;SDS011;10984;45.712;4.800;2023-10-13T13:33:10;9.48;;;4.72;;
21645;SDS011;10984;45.712;4.800;2023-10-13T13:35:54;6.88;;;4.13;;
21645;SDS011;10984;45.712;4.800;2023-10-13T13:38:20;10.00;;;5.13;;
21645;SDS011;10984;45.712;4.800;2023-10-13T13:41:04;7.88;;;4.55;;
21645;SDS011;10984;45.712;4.800;2023-10-13T13:43:34;8.80;;;4.53;;
21645;SDS011;10984;45.712;4.800;2023-10-13T13:46:18;8.93;;;4.55;;
21645;SDS011;10984;45.712;4.800;2023-10-13T13:48:49;6.15;;;4.15;;
21645;SDS011;10984;45.712;4.800;2023-10-13T13:51:42;10.52;;;4.75;;
21645;SDS011;10984;45.712;4.800;2023-10-13T13:54:09;9.73;;;4.13;;
21645;SDS011;10984;45.712;4.800;2023-10-13T13:56:34;6.90;;;4.50;;
21645;SDS011;10984;45.712;4.800;2023-10-13T13:59:03;6.90;;;4.47;;
21645;SDS011;10984;45.712;4.800;2023-10-13T14:01:48;11.15;;;5.18;;
21645;SDS011;10984;45.712;4.800;2023-10-13T14:04:13;8.52;;;4.90;;
21645;SDS011;10984;45.712;4.800;2023-10-13T14:06:43;6.70;;;4.70;;
21645;SDS011;10984;45.712;4.800;2023-10-13T14:09:10;7.45;;;4.80;;
21645;SDS011;10984;45.712;4.800;2023-10-13T14:11:55;10.27;;;4.60;;
21645;SDS011;10984;45.712;4.800;2023-10-13T14:14:39;6.50;;;3.97;;
21645;SDS011;10984;45.712;4.800;2023-10-13T14:17:12;10.35;;;4.38;;
21645;SDS011;10984;45.712;4.800;2023-10-13T14:19:38;9.18;;;4.30;;
21645;SDS011;10984;45.712;4.800;2023-10-13T14:22:05;7.75;;;4.72;;
21645;SDS011;10984;45.712;4.800;2023-10-13T14:24:32;8.15;;;4.65;;
21645;SDS011;10984;45.712;4.800;2023-10-13T14:27:00;8.00;;;4.38;;
21645;SDS011;10984;45.712;4.800;2023-10-13T14:29:46;8.20;;;5.07;;
21645;SDS011;10984;45.712;4.800;2023-10-13T14:32:13;8.82;;;4.38;;
21645;SDS011;10984;45.712;4.800;2023-10-13T14:34:43;10.38;;;4.85;;
21645;SDS011;10984;45.712;4.800;2023-10-13T14:37:10;9.80;;;4.85;;
21645;SDS011;10984;45.712;4.800;2023-10-13T14:39:55;8.98;;;4.53;;
21645;SDS011;10984;45.712;4.800;2023-10-13T14:42:39;6.72;;;4.65;;
21645;SDS011;10984;45.712;4.800;2023-10-13T14:45:23;8.02;;;4.80;;
21645;SDS011;10984;45.712;4.800;2023-10-13T14:47:49;7.90;;;5.20;;
21645;SDS011;10984;45.712;4.800;2023-10-13T14:50:17;9.23;;;4.70;;
21645;SDS011;10984;45.712;4.800;2023-10-13T14:52:46;9.13;;;4.88;;
21645;SDS011;10984;45.712;4.800;2023-10-13T14:55:32;7.95;;;4.72;;
21645;SDS011;10984;45.712;4.800;2023-10-13T14:58:16;8.98;;;4.72;;
21645;SDS011;10984;45.712;4.800;2023-10-13T15:00:42;11.15;;;5.90;;
21645;SDS011;10984;45.712;4.800;2023-10-13T15:03:10;7.32;;;4.60;;
21645;SDS011;10984;45.712;4.800;2023-10-13T15:08:20;8.43;;;4.85;;
21645;SDS011;10984;45.712;4.800;2023-10-13T15:10:46;12.57;;;4.35;;
21645;SDS011;10984;45.712;4.800;2023-10-13T15:13:12;12.25;;;5.10;;
21645;SDS011;10984;45.712;4.800;2023-10-13T15:15:37;6.35;;;4.28;;
21645;SDS011;10984;45.712;4.800;2023-10-13T15:18:04;10.20;;;5.10;;
21645;SDS011;10984;45.712;4.800;2023-10-13T15:20:30;8.07;;;5.75;;
21645;SDS011;10984;45.712;4.800;2023-10-13T15:22:55;7.43;;;4.47;;
21645;SDS011;10984;45.712;4.800;2023-10-13T15:25:25;10.75;;;5.22;;
21645;SDS011;10984;45.712;4.800;2023-10-13T15:28:10;7.82;;;5.50;;
21645;SDS011;10984;45.712;4.800;2023-10-13T15:30:35;10.65;;;5.28;;
21645;SDS011;10984;45.712;4.800;2023-10-13T15:33:17;11.70;;;5.95;;
21645;SDS011;10984;45.712;4.800;2023-10-13T15:35:44;8.40;;;4.93;;
21645;SDS011;10984;45.712;4.800;2023-10-13T15:38:10;10.23;;;5.63;;
21645;SDS011;10984;45.712;4.800;2023-10-13T15:43:24;9.23;;;5.65;;
21645;SDS011;10984;45.712;4.800;2023-10-13T15:45:50;8.23;;;5.00;;
21645;SDS011;10984;45.712;4.800;2023-10-13T15:48:15;9.32;;;5.60;;
21645;SDS011;10984;45.712;4.800;2023-10-13T15:50:41;8.52;;;4.93;;
21645;SDS011;10984;45.712;4.800;2023-10-13T15:53:07;7.88;;;5.15;;
21645;SDS011;10984;45.712;4.800;2023-10-13T15:55:37;12.65;;;5.15;;
21645;SDS011;10984;45.712;4.800;2023-10-13T15:58:06;9.68;;;5.03;;
21645;SDS011;10984;45.712;4.800;2023-10-13T16:00:52;7.72;;;5.20;;
21645;SDS011;10984;45.712;4.800;2023-10-13T16:03:20;8.40;;;5.15;;
21645;SDS011;10984;45.712;4.800;2023-10-13T16:05:48;10.50;;;5.05;;
21645;SDS011;10984;45.712;4.800;2023-10-13T16:08:13;8.50;;;5.07;;
21645;SDS011;10984;45.712;4.800;2023-10-13T16:10:39;7.88;;;5.15;;
21645;SDS011;10984;45.712;4.800;2023-10-13T16:13:05;7.32;;;5.00;;
21645;SDS011;10984;45.712;4.800;2023-10-13T16:15:35;7.07;;;4.68;;
21645;SDS011;10984;45.712;4.800;2023-10-13T16:18:07;7.65;;;5.05;;
21645;SDS011;10984;45.712;4.800;2023-10-13T16:20:35;10.57;;;4.97;;
21645;SDS011;10984;45.712;4.800;2023-10-13T16:23:01;10.02;;;5.03;;
21645;SDS011;10984;45.712;4.800;2023-10-13T16:25:26;11.00;;;5.22;;
21645;SDS011;10984;45.712;4.800;2023-10-13T16:27:52;6.60;;;4.25;;
21645;SDS011;10984;45.712;4.800;2023-10-13T16:30:18;13.48;;;5.13;;
21645;SDS011;10984;45.712;4.800;2023-10-13T16:32:47;8.88;;;5.00;;